createdAt,value
2018-10-16T00:00:30.932Z,36.8
2018-10-16T00:01:20.385Z,36.8
2018-10-16T00:02:11.285Z,36.8
2018-10-16T00:03:02.628Z,36.8
2018-10-16T00:03:50.838Z,36.8
2018-10-16T00:04:41.516Z,36.8
2018-10-16T00:05:30.713Z,36.8
2018-10-16T00:06:21.615Z,36.7
2018-10-16T00:07:11.616Z,36.8
2018-10-16T00:25:24.977Z,36.6
2018-10-16T00:26:15.344Z,36.6
2018-10-16T00:27:04.538Z,36.6
2018-10-16T00:27:54.587Z,36.6
2018-10-16T00:28:45.020Z,36.6
2018-10-16T00:29:35.299Z,36.6
2018-10-16T00:30:26.179Z,36.5
2018-10-16T00:31:15.955Z,36.5
2018-10-16T00:32:04.941Z,36.5
2018-10-16T00:32:55.643Z,36.5
2018-10-16T00:33:45.894Z,36.5
2018-10-16T00:34:35.692Z,36.5
2018-10-16T00:35:26.249Z,36.5
2018-10-16T00:36:15.745Z,36.5
2018-10-16T00:37:04.991Z,36.5
2018-10-16T00:37:55.336Z,36.5
2018-10-16T00:38:46.258Z,36.5
2018-10-16T00:39:35.409Z,36.4
2018-10-16T00:40:26.619Z,36.5
2018-10-16T00:41:15.831Z,36.4
2018-10-16T00:42:05.925Z,36.4
2018-10-16T00:42:56.537Z,36.4
2018-10-16T00:43:46.817Z,36.4
2018-10-16T00:44:36.073Z,36.4
2018-10-16T00:45:27.014Z,36.4
2018-10-16T00:46:15.703Z,36.4
2018-10-16T00:47:06.895Z,36.4
2018-10-16T00:47:55.870Z,36.4
2018-10-16T00:48:46.753Z,36.4
2018-10-16T00:49:37.308Z,36.4
2018-10-16T00:50:26.571Z,36.4
2018-10-16T00:51:16.836Z,36.4
2018-10-16T00:52:07.240Z,36.4
2018-10-16T00:52:57.032Z,36.4
2018-10-16T00:53:47.040Z,36.4
2018-10-16T00:54:36.842Z,36.3
2018-10-16T00:55:27.482Z,36.4
2018-10-16T00:56:17.239Z,36.4
2018-10-16T00:57:07.572Z,36.3
2018-10-16T00:57:57.380Z,36.3
2018-10-16T00:58:47.134Z,36.3
2018-10-16T00:59:37.254Z,36.3
2018-10-16T01:00:27.802Z,36.3
2018-10-16T01:01:17.571Z,36.3
2018-10-16T01:02:08.205Z,36.3
2018-10-16T01:02:58.044Z,36.3
2018-10-16T01:03:47.315Z,36.3
2018-10-16T01:04:38.145Z,36.3
2018-10-16T01:05:28.232Z,36.3
2018-10-16T01:06:18.289Z,36.3
2018-10-16T01:07:08.335Z,36.3
2018-10-16T01:07:58.354Z,36.3
2018-10-16T01:08:48.479Z,36.3
2018-10-16T01:09:37.932Z,36.3
2018-10-16T01:10:28.574Z,36.3
2018-10-16T01:11:18.066Z,36.2
2018-10-16T01:12:08.705Z,36.3
2018-10-16T01:12:57.642Z,36.2
2018-10-16T01:13:48.589Z,36.2
2018-10-16T01:14:38.641Z,36.2
2018-10-16T01:15:28.916Z,36.2
2018-10-16T01:16:18.986Z,36.2
2018-10-16T01:17:08.544Z,36.1
2018-10-16T01:17:59.366Z,36.2
2018-10-16T01:18:48.631Z,36.2
2018-10-16T01:19:37.866Z,36.1
2018-10-16T01:20:28.193Z,36.1
2018-10-16T01:21:18.488Z,36.1
2018-10-16T01:22:08.923Z,36.1
2018-10-16T01:22:59.499Z,36.1
2018-10-16T01:23:49.262Z,36.1
2018-10-16T01:24:39.328Z,36.1
2018-10-16T01:25:29.379Z,36.1
2018-10-16T01:26:19.172Z,36.1
2018-10-16T01:27:09.814Z,36.1
2018-10-16T01:28:00.164Z,36.1
2018-10-16T01:28:49.632Z,36.1
2018-10-16T01:29:39.698Z,36.1
2018-10-16T01:30:29.526Z,36.1
2018-10-16T01:31:19.616Z,36.1
2018-10-16T01:32:09.912Z,36.1
2018-10-16T01:33:00.470Z,36.1
2018-10-16T01:33:49.720Z,36.1
2018-10-16T01:34:40.353Z,36
2018-10-16T01:35:29.560Z,36.1
2018-10-16T01:36:20.755Z,36
2018-10-16T01:37:10.304Z,36
2018-10-16T01:38:00.001Z,36
2018-10-16T01:38:50.605Z,36
2018-10-16T01:39:40.433Z,36
2018-10-16T01:40:30.510Z,36
2018-10-16T01:41:20.810Z,36
2018-10-16T01:42:10.910Z,35.9
2018-10-16T01:43:00.981Z,36
2018-10-16T01:43:50.989Z,35.9
2018-10-16T01:44:39.447Z,35.9
2018-10-16T01:45:31.129Z,35.9
2018-10-16T01:46:20.680Z,35.9
2018-10-16T01:47:10.676Z,35.9
2018-10-16T01:48:01.031Z,35.9
2018-10-16T01:48:51.416Z,35.9
2018-10-16T01:49:40.899Z,35.9
2018-10-16T01:50:31.026Z,35.9
2018-10-16T01:51:21.581Z,35.9
2018-10-16T01:52:10.847Z,35.9
2018-10-16T01:53:01.739Z,35.9
2018-10-16T01:53:51.463Z,35.9
2018-10-16T01:54:41.289Z,35.9
2018-10-16T01:55:30.514Z,35.9
2018-10-16T01:56:21.405Z,35.9
2018-10-16T01:57:12.071Z,35.9
2018-10-16T01:58:01.514Z,35.9
2018-10-16T01:58:51.809Z,35.8
2018-10-16T01:59:41.393Z,35.8
2018-10-16T02:00:31.441Z,35.8
2018-10-16T02:01:22.082Z,35.8
2018-10-16T02:02:12.907Z,35.8
2018-10-16T02:03:01.066Z,35.8
2018-10-16T02:03:52.548Z,35.8
2018-10-16T02:04:42.831Z,35.8
2018-10-16T02:05:32.045Z,35.8
2018-10-16T02:06:22.428Z,35.8
2018-10-16T02:07:11.649Z,35.8
2018-10-16T02:08:02.818Z,35.8
2018-10-16T02:08:52.831Z,35.8
2018-10-16T02:09:42.675Z,35.8
2018-10-16T02:10:33.020Z,35.8
2018-10-16T02:11:22.795Z,35.8
2018-10-16T02:12:12.528Z,35.8
2018-10-16T02:13:02.908Z,35.8
2018-10-16T02:13:52.674Z,35.8
2018-10-16T02:14:43.652Z,35.8
2018-10-16T02:15:32.237Z,35.8
2018-10-16T02:16:22.876Z,35.7
2018-10-16T02:17:13.220Z,35.7
2018-10-16T02:18:03.012Z,35.7
2018-10-16T02:18:53.619Z,35.7
2018-10-16T02:19:43.393Z,35.7
2018-10-16T02:20:33.746Z,35.7
2018-10-16T02:21:23.238Z,35.7
2018-10-16T02:22:13.298Z,35.7
2018-10-16T02:23:03.606Z,35.7
2018-10-16T02:23:53.480Z,35.7
2018-10-16T02:24:42.903Z,35.7
2018-10-16T02:25:33.540Z,35.7
2018-10-16T02:26:23.633Z,35.6
2018-10-16T02:27:14.064Z,35.6
2018-10-16T02:28:04.030Z,35.6
2018-10-16T02:28:53.560Z,35.6
2018-10-16T02:29:44.413Z,35.6
2018-10-16T02:30:33.939Z,35.6
2018-10-16T02:31:24.292Z,35.6
2018-10-16T02:32:14.305Z,35.6
2018-10-16T02:33:04.662Z,35.6
2018-10-16T02:33:54.384Z,35.6
2018-10-16T02:34:44.767Z,35.6
2018-10-16T02:35:34.582Z,35.6
2018-10-16T02:36:24.357Z,35.6
2018-10-16T02:37:14.436Z,35.6
2018-10-16T02:38:03.899Z,35.6
2018-10-16T02:38:54.833Z,35.6
2018-10-16T02:39:44.351Z,35.6
2018-10-16T02:40:34.669Z,35.6
2018-10-16T02:41:25.301Z,35.6
2018-10-16T02:42:14.820Z,35.5
2018-10-16T02:43:05.434Z,35.6
2018-10-16T02:43:54.921Z,35.5
2018-10-16T02:44:45.024Z,35.5
2018-10-16T02:45:35.032Z,35.5
2018-10-16T02:46:25.329Z,35.5
2018-10-16T02:47:14.916Z,35.5
2018-10-16T02:48:05.788Z,35.5
2018-10-16T02:48:55.078Z,35.4
2018-10-16T02:49:45.918Z,35.4
2018-10-16T02:50:35.676Z,35.3
2018-10-16T02:51:25.179Z,35.3
2018-10-16T02:52:15.236Z,35.3
2018-10-16T02:53:05.853Z,35.2
2018-10-16T02:53:56.191Z,35.2
2018-10-16T02:54:45.999Z,35.1
2018-10-16T02:55:35.758Z,35.1
2018-10-16T02:56:25.903Z,35.1
2018-10-16T02:57:15.927Z,35
2018-10-16T02:58:06.270Z,35
2018-10-16T02:58:56.870Z,35
2018-10-16T02:59:46.618Z,35
2018-10-16T03:00:36.681Z,34.9
2018-10-16T03:01:26.195Z,34.9
2018-10-16T03:02:16.558Z,34.9
2018-10-16T03:03:06.935Z,34.9
2018-10-16T03:03:56.708Z,34.9
2018-10-16T03:04:45.883Z,34.9
2018-10-16T03:05:36.245Z,34.8
2018-10-16T03:06:26.877Z,34.8
2018-10-16T03:07:16.647Z,34.8
2018-10-16T03:08:06.423Z,34.8
2018-10-16T03:08:57.315Z,34.8
2018-10-16T03:09:46.490Z,34.8
2018-10-16T03:10:36.873Z,34.8
2018-10-16T03:11:27.469Z,34.8
2018-10-16T03:12:17.020Z,34.9
2018-10-16T03:13:07.379Z,34.9
2018-10-16T03:13:57.422Z,34.9
2018-10-16T03:14:46.604Z,35
2018-10-16T03:15:38.053Z,35
2018-10-16T03:16:27.056Z,35
2018-10-16T03:17:17.504Z,35
2018-10-16T03:18:08.002Z,35
2018-10-16T03:18:57.220Z,35.1
2018-10-16T03:19:47.264Z,35
2018-10-16T03:20:39.298Z,35.1
2018-10-16T03:21:26.827Z,35.1
2018-10-16T03:22:18.252Z,35.1
2018-10-16T03:23:08.334Z,35.1
2018-10-16T03:23:57.869Z,35.1
2018-10-16T03:24:47.928Z,35.1
2018-10-16T03:25:37.702Z,35.1
2018-10-16T03:26:28.819Z,35.1
2018-10-16T03:27:17.854Z,35.1
2018-10-16T03:28:07.883Z,35.1
2018-10-16T03:28:58.543Z,35.1
2018-10-16T03:29:48.588Z,35.1
2018-10-16T03:30:39.153Z,35.1
2018-10-16T03:31:28.975Z,35.1
2018-10-16T03:32:18.520Z,35.1
2018-10-16T03:33:08.544Z,35.1
2018-10-16T03:33:58.883Z,35
2018-10-16T03:34:48.620Z,35.1
2018-10-16T03:35:39.495Z,35.1
2018-10-16T03:36:28.510Z,35
2018-10-16T03:37:18.803Z,35.1
2018-10-16T03:38:08.623Z,35
2018-10-16T03:38:58.934Z,35
2018-10-16T03:39:49.570Z,35.1
2018-10-16T03:40:39.337Z,35
2018-10-16T03:41:29.725Z,35.1
2018-10-16T03:42:19.774Z,35
2018-10-16T03:43:09.805Z,35
2018-10-16T03:43:59.339Z,35
2018-10-16T03:44:49.659Z,35
2018-10-16T03:45:39.451Z,35
2018-10-16T03:46:28.965Z,35
2018-10-16T03:47:19.381Z,35
2018-10-16T03:48:10.140Z,35
2018-10-16T03:48:59.391Z,35
2018-10-16T03:49:49.773Z,35
2018-10-16T03:50:40.119Z,35
2018-10-16T03:51:29.257Z,35
2018-10-16T03:52:19.640Z,35
2018-10-16T03:53:10.267Z,34.9
2018-10-16T03:54:00.067Z,35
2018-10-16T03:54:50.634Z,34.9
2018-10-16T03:55:40.433Z,34.9
2018-10-16T03:56:31.066Z,34.9
2018-10-16T03:57:21.333Z,34.9
2018-10-16T03:58:10.375Z,34.9
2018-10-16T03:59:00.424Z,34.9
2018-10-16T03:59:50.780Z,34.9
2018-10-16T04:00:41.103Z,34.9
2018-10-16T04:01:31.130Z,34.9
2018-10-16T04:02:20.649Z,34.9
2018-10-16T04:03:10.711Z,34.9
2018-10-16T04:04:01.104Z,34.9
2018-10-16T04:04:51.135Z,34.9
2018-10-16T04:05:41.115Z,34.9
2018-10-16T04:06:31.831Z,34.9
2018-10-16T04:07:20.478Z,34.9
2018-10-16T04:08:11.661Z,34.9
2018-10-16T04:09:01.721Z,34.9
2018-10-16T04:09:51.222Z,34.9
2018-10-16T04:10:41.233Z,34.9
2018-10-16T04:11:32.153Z,34.9
2018-10-16T04:12:21.967Z,34.9
2018-10-16T04:13:12.065Z,34.8
2018-10-16T04:14:02.685Z,34.9
2018-10-16T04:14:51.888Z,34.8
2018-10-16T04:15:41.348Z,34.8
2018-10-16T04:16:31.422Z,34.8
2018-10-16T04:17:22.136Z,34.8
2018-10-16T04:18:12.203Z,34.8
2018-10-16T04:19:01.040Z,34.8
2018-10-16T04:19:51.965Z,34.8
2018-10-16T04:20:41.983Z,34.8
2018-10-16T04:21:32.362Z,34.8
2018-10-16T04:22:23.214Z,34.8
2018-10-16T04:23:11.951Z,34.8
2018-10-16T04:24:02.268Z,34.8
2018-10-16T04:24:52.616Z,34.8
2018-10-16T04:25:42.680Z,34.8
2018-10-16T04:26:32.125Z,34.8
2018-10-16T04:27:23.359Z,34.8
2018-10-16T04:28:13.185Z,34.8
2018-10-16T04:29:03.388Z,34.8
2018-10-16T04:29:52.711Z,34.8
2018-10-16T04:30:42.746Z,34.8
2018-10-16T04:31:32.731Z,34.8
2018-10-16T04:32:23.172Z,34.8
2018-10-16T04:33:12.105Z,34.8
2018-10-16T04:34:02.994Z,34.8
2018-10-16T04:34:52.501Z,34.7
2018-10-16T04:35:43.676Z,34.7
2018-10-16T04:36:33.811Z,34.7
2018-10-16T04:54:47.331Z,34.6
2018-10-16T04:55:37.704Z,34.6
2018-10-16T04:56:27.791Z,34.6
2018-10-16T04:57:16.943Z,34.6
2018-10-16T04:58:07.851Z,34.6
2018-10-16T04:58:57.677Z,34.6
2018-10-16T04:59:47.678Z,34.5
2018-10-16T05:00:38.072Z,34.5
2018-10-16T05:01:28.387Z,34.6
2018-10-16T05:02:18.179Z,34.6
2018-10-16T05:03:08.632Z,34.5
2018-10-16T05:03:58.377Z,34.5
2018-10-16T05:04:48.122Z,34.5
2018-10-16T05:05:38.126Z,34.5
2018-10-16T05:06:28.458Z,34.5
2018-10-16T05:07:18.421Z,34.5
2018-10-16T05:08:09.414Z,34.5
2018-10-16T05:08:58.404Z,34.5
2018-10-16T05:09:48.410Z,34.5
2018-10-16T05:10:39.060Z,34.4
2018-10-16T05:11:29.152Z,34.4
2018-10-16T05:12:18.875Z,34.5
2018-10-16T05:13:09.292Z,34.4
2018-10-16T05:13:59.020Z,34.4
2018-10-16T05:14:49.402Z,34.4
2018-10-16T05:15:39.344Z,34.4
2018-10-16T05:16:28.893Z,34.4
2018-10-16T05:17:19.288Z,34.4
2018-10-16T05:18:08.779Z,34.4
2018-10-16T05:18:59.082Z,34.4
2018-10-16T05:19:48.644Z,34.4
2018-10-16T05:20:38.669Z,34.4
2018-10-16T05:21:29.849Z,34.4
2018-10-16T05:22:19.904Z,34.4
2018-10-16T05:23:09.668Z,34.4
2018-10-16T05:23:59.459Z,34.4
2018-10-16T05:24:50.134Z,34.4
2018-10-16T05:25:40.098Z,34.4
2018-10-16T05:26:29.710Z,34.4
2018-10-16T05:27:19.926Z,34.4
2018-10-16T05:28:10.733Z,34.4
2018-10-16T05:29:01.056Z,34.4
2018-10-16T05:29:50.640Z,34.4
2018-10-16T05:30:39.931Z,34.3
2018-10-16T05:31:32.728Z,34.4
2018-10-16T05:32:20.536Z,34.3
2018-10-16T05:33:10.953Z,34.3
2018-10-16T05:33:59.950Z,34.3
2018-10-16T05:34:51.030Z,34.3
2018-10-16T05:35:40.796Z,34.3
2018-10-16T05:36:30.906Z,34.3
2018-10-16T05:37:20.441Z,34.3
2018-10-16T05:38:10.776Z,34.3
2018-10-16T05:39:01.309Z,34.3
2018-10-16T05:39:50.642Z,34.3
2018-10-16T05:40:40.438Z,34.3
2018-10-16T05:41:31.015Z,34.3
2018-10-16T05:42:20.811Z,34.3
2018-10-16T05:43:11.150Z,34.3
2018-10-16T05:44:01.210Z,34.3
2018-10-16T05:44:51.553Z,34.3
2018-10-16T05:45:41.320Z,34.3
2018-10-16T05:46:30.820Z,34.3
2018-10-16T05:47:21.721Z,34.3
2018-10-16T05:48:11.229Z,34.3
2018-10-16T05:49:01.995Z,34.2
2018-10-16T05:49:51.909Z,34.1
2018-10-16T05:50:41.155Z,34.1
2018-10-16T05:51:31.996Z,34.1
2018-10-16T05:52:21.291Z,34
2018-10-16T05:53:12.178Z,33.9
2018-10-16T05:54:01.732Z,33.9
2018-10-16T05:54:52.314Z,33.9
2018-10-16T05:55:42.383Z,33.8
2018-10-16T05:56:32.413Z,33.8
2018-10-16T05:57:21.956Z,33.8
2018-10-16T05:58:12.277Z,33.8
2018-10-16T05:59:02.003Z,33.8
2018-10-16T05:59:52.080Z,33.8
2018-10-16T06:00:42.191Z,33.7
2018-10-16T06:01:32.476Z,33.7
2018-10-16T06:02:22.004Z,33.6
2018-10-16T06:03:12.897Z,33.6
2018-10-16T06:04:02.447Z,33.6
2018-10-16T06:04:52.048Z,33.6
2018-10-16T06:05:44.082Z,33.6
2018-10-16T06:06:32.415Z,33.6
2018-10-16T06:07:22.145Z,33.6
2018-10-16T06:08:12.273Z,33.5
2018-10-16T06:09:02.320Z,33.5
2018-10-16T06:09:52.622Z,33.5
2018-10-16T06:10:42.708Z,33.5
2018-10-16T06:11:32.677Z,33.4
2018-10-16T06:12:24.216Z,33.4
2018-10-16T06:13:13.427Z,33.4
2018-10-16T06:14:03.505Z,30.6
2018-10-16T06:14:52.693Z,23.2
2018-10-16T06:15:43.412Z,30.6
2018-10-16T06:16:33.309Z,34.6
2018-10-16T06:17:23.600Z,33.9
2018-10-16T06:18:13.157Z,31.3
2018-10-16T06:19:03.259Z,30
2018-10-16T06:19:53.267Z,29.3
2018-10-16T06:20:43.912Z,28.9
2018-10-16T06:21:32.921Z,28.8
2018-10-16T06:22:24.527Z,28.8
2018-10-16T06:23:13.800Z,28.9
2018-10-16T06:24:04.126Z,29
2018-10-16T06:24:54.511Z,29.1
2018-10-16T06:25:44.009Z,29.3
2018-10-16T06:26:35.092Z,29.3
2018-10-16T06:27:24.439Z,29.4
2018-10-16T06:28:14.857Z,29.6
2018-10-16T06:29:03.996Z,29.1
2018-10-16T06:29:54.666Z,26.9
2018-10-16T06:30:44.903Z,33.4
2018-10-16T06:31:34.451Z,37.5
2018-10-16T06:32:24.456Z,38.4
2018-10-16T06:33:15.356Z,37.5
2018-10-16T06:34:04.953Z,36
2018-10-16T06:34:54.599Z,35
2018-10-16T06:35:45.388Z,34.6
2018-10-16T06:36:35.538Z,34.9
2018-10-16T06:37:24.886Z,35.6
2018-10-16T06:38:14.616Z,36.3
2018-10-16T06:39:05.308Z,36.7
2018-10-16T06:39:54.175Z,36.8
2018-10-16T06:40:47.225Z,36.8
2018-10-16T06:41:36.353Z,36.8
2018-10-16T06:42:25.490Z,36.9
2018-10-16T06:43:15.020Z,37.1
2018-10-16T06:44:05.056Z,37.3
2018-10-16T06:44:55.675Z,37.6
2018-10-16T06:45:45.518Z,37.8
2018-10-16T06:46:36.309Z,38
2018-10-16T06:47:27.342Z,38.2
2018-10-16T06:48:19.567Z,38.3
2018-10-16T06:49:06.484Z,38.5
2018-10-16T06:49:56.057Z,38.6
2018-10-16T06:50:45.552Z,38.8
2018-10-16T06:51:35.906Z,39.1
2018-10-16T06:52:25.949Z,39.3
2018-10-16T06:53:16.459Z,39.4
2018-10-16T06:54:05.753Z,39.7
2018-10-16T06:54:56.454Z,39.9
2018-10-16T06:55:45.894Z,40
2018-10-16T06:56:36.613Z,40.2
2018-10-16T06:57:26.897Z,40.4
2018-10-16T06:58:15.765Z,40.5
2018-10-16T06:59:07.297Z,40.7
2018-10-16T06:59:57.103Z,40.9
2018-10-16T07:00:45.735Z,41.1
2018-10-16T07:01:36.902Z,41.3
2018-10-16T07:02:27.340Z,41.4
2018-10-16T07:03:16.755Z,41.6
2018-10-16T07:04:07.359Z,41.8
2018-10-16T07:04:57.674Z,42
2018-10-16T07:05:46.604Z,42.2
2018-10-16T07:06:37.607Z,42.4
2018-10-16T07:07:28.304Z,42.6
2018-10-16T07:08:17.651Z,42.8
2018-10-16T07:09:07.759Z,42.9
2018-10-16T07:09:56.967Z,43.1
2018-10-16T07:10:47.899Z,43.3
2018-10-16T07:11:37.654Z,43.4
2018-10-16T07:12:27.981Z,43.6
2018-10-16T07:13:17.190Z,43.8
2018-10-16T07:14:06.727Z,44
2018-10-16T07:14:59.853Z,44.2
2018-10-16T07:15:47.687Z,44.4
2018-10-16T07:16:37.859Z,44.6
2018-10-16T07:17:28.570Z,44.7
2018-10-16T07:18:17.585Z,44.9
2018-10-16T07:19:07.949Z,45.1
2018-10-16T07:19:57.401Z,45.2
2018-10-16T07:20:48.576Z,45.4
2018-10-16T07:21:39.433Z,45.5
2018-10-16T07:22:28.174Z,45.7
2018-10-16T07:23:18.287Z,45.8
2018-10-16T07:24:09.472Z,46
2018-10-16T07:24:58.411Z,46.2
2018-10-16T07:25:48.667Z,46.3
2018-10-16T07:26:38.593Z,46.5
2018-10-16T07:27:28.817Z,46.7
2018-10-16T07:28:18.434Z,46.9
2018-10-16T07:29:08.459Z,47.1
2018-10-16T07:29:58.789Z,47.2
2018-10-16T07:30:48.551Z,47.4
2018-10-16T07:31:38.953Z,47.5
2018-10-16T07:32:28.956Z,47.7
2018-10-16T07:33:19.081Z,47.8
2018-10-16T07:34:09.053Z,48
2018-10-16T07:34:59.653Z,48.2
2018-10-16T07:35:49.476Z,48.4
2018-10-16T07:36:39.536Z,48.5
2018-10-16T07:37:29.554Z,48.7
2018-10-16T07:38:21.260Z,48.9
2018-10-16T07:39:10.118Z,49.1
2018-10-16T07:39:59.508Z,49.3
2018-10-16T07:40:50.375Z,49.4
2018-10-16T07:41:39.005Z,49.6
2018-10-16T07:42:29.958Z,49.8
2018-10-16T07:43:19.476Z,49.9
2018-10-16T07:44:09.507Z,50.1
2018-10-16T07:45:00.635Z,50.3
2018-10-16T07:45:49.914Z,50.4
2018-10-16T07:46:40.547Z,50.6
2018-10-16T07:47:30.307Z,50.8
2018-10-16T07:48:20.774Z,51
2018-10-16T07:49:09.617Z,51.2
2018-10-16T07:50:00.765Z,51.4
2018-10-16T07:50:50.565Z,51.6
2018-10-16T07:51:40.364Z,51.8
2018-10-16T07:53:21.017Z,52.1
2018-10-16T07:54:10.789Z,52.3
2018-10-16T07:55:51.326Z,52.6
2018-10-16T07:56:41.272Z,52.8
2018-10-16T07:57:31.272Z,52.9
2018-10-16T07:58:21.049Z,53.1
2018-10-16T07:59:11.580Z,53.3
2018-10-16T08:00:01.232Z,53.5
2018-10-16T08:00:51.602Z,53.7
2018-10-16T08:01:40.771Z,53.9
2018-10-16T08:02:30.127Z,54
2018-10-16T08:03:21.496Z,54.2
2018-10-16T08:04:11.231Z,54.4
2018-10-16T08:05:01.877Z,54.6
2018-10-16T08:05:52.043Z,54.7
2018-10-16T08:06:42.059Z,54.9
2018-10-16T08:07:30.914Z,55
2018-10-16T08:08:22.359Z,55.2
2018-10-16T08:09:11.934Z,55.3
2018-10-16T08:10:01.696Z,55.5
2018-10-16T08:10:51.153Z,55.7
2018-10-16T08:11:42.121Z,55.8
2018-10-16T08:12:31.843Z,55.9
2018-10-16T08:13:21.923Z,56
2018-10-16T08:14:11.989Z,56.2
2018-10-16T08:15:01.813Z,56.4
2018-10-16T08:15:52.425Z,56.5
2018-10-16T08:16:42.775Z,56.7
2018-10-16T08:17:32.358Z,56.9
2018-10-16T08:18:22.375Z,57
2018-10-16T08:19:12.393Z,57.2
2018-10-16T08:20:02.451Z,57.3
2018-10-16T08:20:52.210Z,57.5
2018-10-16T08:21:42.565Z,57.6
2018-10-16T08:22:32.390Z,57.8
2018-10-16T08:23:22.909Z,57.9
2018-10-16T08:24:12.469Z,58.1
2018-10-16T08:25:03.133Z,58.2
2018-10-16T08:25:53.113Z,58.3
2018-10-16T08:26:43.327Z,58.4
2018-10-16T08:28:23.065Z,58.7
2018-10-16T08:29:13.136Z,58.8
2018-10-16T08:30:03.993Z,58.9
2018-10-16T08:30:53.744Z,59.1
2018-10-16T08:31:43.303Z,59.3
2018-10-16T08:32:34.174Z,59.4
2018-10-16T08:33:22.843Z,59.5
2018-10-16T08:34:14.809Z,59.6
2018-10-16T08:35:03.907Z,59.7
2018-10-16T08:35:54.016Z,59.8
2018-10-16T08:36:44.856Z,59.9
2018-10-16T08:37:34.287Z,60.1
2018-10-16T08:38:23.537Z,60.1
2018-10-16T08:39:14.143Z,60.3
2018-10-16T08:40:03.682Z,60.4
2018-10-16T08:40:54.816Z,60.6
2018-10-16T08:41:44.784Z,60.8
2018-10-16T08:42:34.380Z,60.9
2018-10-16T08:43:24.147Z,61.1
2018-10-16T08:44:14.211Z,61.3
2018-10-16T08:45:06.094Z,61.4
2018-10-16T08:45:54.360Z,61.5
2018-10-16T08:46:44.715Z,61.6
2018-10-16T08:47:35.297Z,61.8
2018-10-16T08:48:25.104Z,61.9
2018-10-16T08:49:14.845Z,62
2018-10-16T08:50:05.214Z,62
2018-10-16T08:50:55.227Z,62.1
2018-10-16T08:51:45.020Z,62.2
2018-10-16T08:52:34.587Z,62.3
2018-10-16T09:09:04.366Z,64.1
2018-10-16T09:09:54.747Z,64.3
2018-10-16T09:10:44.275Z,64.3
2018-10-16T09:11:33.818Z,64.4
2018-10-16T09:12:24.070Z,64.5
2018-10-16T09:13:16.091Z,64.6
2018-10-16T09:14:06.484Z,64.7
2018-10-16T09:14:54.541Z,64.8
2018-10-16T09:15:44.330Z,64.9
2018-10-16T09:16:34.961Z,64.9
2018-10-16T09:17:24.993Z,65
2018-10-16T09:18:15.060Z,65.1
2018-10-16T09:19:04.826Z,65.3
2018-10-16T09:19:54.970Z,65.3
2018-10-16T09:20:45.530Z,65.4
2018-10-16T09:21:35.282Z,65.5
2018-10-16T09:22:25.646Z,65.6
2018-10-16T09:23:14.598Z,65.6
2018-10-16T09:24:05.386Z,65.8
2018-10-16T09:24:55.931Z,65.8
2018-10-16T09:25:46.128Z,65.9
2018-10-16T09:26:35.465Z,66
2018-10-16T09:27:25.750Z,66.1
2018-10-16T09:28:15.503Z,66.2
2018-10-16T09:29:05.845Z,66.3
2018-10-16T09:29:55.950Z,66.3
2018-10-16T09:30:45.434Z,66.4
2018-10-16T09:31:35.738Z,66.4
2018-10-16T09:32:26.096Z,66.4
2018-10-16T09:33:15.345Z,66.5
2018-10-16T09:34:06.255Z,66.6
2018-10-16T09:34:55.720Z,66.7
2018-10-16T09:35:46.301Z,66.8
2018-10-16T09:36:36.409Z,66.9
2018-10-16T09:37:26.537Z,66.9
2018-10-16T09:38:17.023Z,67.1
2018-10-16T09:39:06.276Z,67.1
2018-10-16T09:39:56.396Z,67.3
2018-10-16T09:40:47.204Z,67.3
2018-10-16T09:41:39.328Z,67.4
2018-10-16T09:42:26.109Z,67.5
2018-10-16T09:43:16.416Z,67.6
2018-10-16T09:44:08.315Z,67.6
2018-10-16T09:44:57.451Z,67.7
2018-10-16T09:45:47.232Z,67.8
2018-10-16T09:46:36.571Z,67.8
2018-10-16T09:47:26.927Z,67.9
2018-10-16T09:48:16.074Z,67.9
2018-10-16T09:49:07.033Z,67.9
2018-10-16T09:49:56.924Z,68
2018-10-16T09:50:49.854Z,68.1
2018-10-16T09:51:37.537Z,68.1
2018-10-16T09:52:27.417Z,68.1
2018-10-16T09:53:17.407Z,68.2
2018-10-16T09:54:07.412Z,68.3
2018-10-16T09:54:57.714Z,68.3
2018-10-16T09:55:47.831Z,68.4
2018-10-16T09:56:37.584Z,68.4
2018-10-16T09:57:26.501Z,68.4
2018-10-16T09:58:17.727Z,68.4
2018-10-16T09:59:08.079Z,68.1
2018-10-16T09:59:57.797Z,67.9
2018-10-16T10:00:48.672Z,67.7
2018-10-16T10:01:37.993Z,67.7
2018-10-16T10:02:28.105Z,67.8
2018-10-16T10:03:17.494Z,67.8
2018-10-16T10:04:08.457Z,67.9
2018-10-16T10:04:58.481Z,67.9
2018-10-16T10:05:48.283Z,67.9
2018-10-16T10:06:38.058Z,67.9
2018-10-16T10:07:28.413Z,68
2018-10-16T10:08:18.450Z,68
2018-10-16T10:09:08.260Z,67.9
2018-10-16T10:09:58.568Z,67.8
2018-10-16T10:10:48.870Z,67.8
2018-10-16T10:11:39.271Z,67.8
2018-10-16T10:12:28.743Z,67.8
2018-10-16T10:13:19.143Z,67.9
2018-10-16T10:14:09.177Z,68.1
2018-10-16T10:14:58.631Z,68.1
2018-10-16T10:15:49.320Z,68.3
2018-10-16T10:16:39.625Z,68.3
2018-10-16T10:17:29.690Z,68.4
2018-10-16T10:18:19.217Z,68.4
2018-10-16T10:19:08.988Z,68.5
2018-10-16T10:19:59.035Z,68.6
2018-10-16T10:20:49.659Z,68.7
2018-10-16T10:21:39.640Z,68.8
2018-10-16T10:22:29.533Z,68.9
2018-10-16T10:23:20.310Z,68.9
2018-10-16T10:24:09.905Z,68.9
2018-10-16T10:25:00.167Z,68.9
2018-10-16T10:25:49.202Z,69
2018-10-16T10:26:38.947Z,69.1
2018-10-16T10:27:29.590Z,69.1
2018-10-16T10:28:19.647Z,69.2
2018-10-16T10:29:10.305Z,69.3
2018-10-16T10:29:59.768Z,69.3
2018-10-16T10:30:49.607Z,69.4
2018-10-16T10:31:40.428Z,69.4
2018-10-16T10:32:29.984Z,69.5
2018-10-16T10:33:20.061Z,69.6
2018-10-16T10:34:10.392Z,69.6
2018-10-16T10:35:00.734Z,69.8
2018-10-16T10:35:50.837Z,69.8
2018-10-16T10:36:40.843Z,69.9
2018-10-16T10:37:30.908Z,69.9
2018-10-16T10:38:20.448Z,70.1
2018-10-16T10:39:09.841Z,70.1
2018-10-16T10:40:00.544Z,70.2
2018-10-16T10:40:50.892Z,70.3
2018-10-16T10:41:41.043Z,70.3
2018-10-16T10:42:31.673Z,70.3
2018-10-16T10:43:21.434Z,70.3
2018-10-16T10:44:10.040Z,70.4
2018-10-16T10:45:01.278Z,70.4
2018-10-16T10:45:51.134Z,70.4
2018-10-16T10:46:41.732Z,70.4
2018-10-16T10:47:31.410Z,70.5
2018-10-16T10:48:21.803Z,70.6
2018-10-16T10:49:11.282Z,70.6
2018-10-16T10:50:03.450Z,70.6
2018-10-16T10:50:55.944Z,70.7
2018-10-16T10:51:45.823Z,70.8
2018-10-16T10:52:31.499Z,70.8
2018-10-16T10:53:22.455Z,70.9
2018-10-16T10:54:12.472Z,70.9
2018-10-16T10:55:02.265Z,71
2018-10-16T10:55:52.263Z,71.1
2018-10-16T10:56:44.132Z,71
2018-10-16T10:57:32.970Z,71
2018-10-16T10:58:23.352Z,71
2018-10-16T10:59:12.719Z,71
2018-10-16T11:00:02.632Z,71
2018-10-16T11:00:53.277Z,71
2018-10-16T11:01:43.122Z,71.1
2018-10-16T11:02:32.912Z,71.2
2018-10-16T11:03:26.290Z,71.2
2018-10-16T11:04:12.877Z,71.2
2018-10-16T11:05:03.482Z,71.3
2018-10-16T11:05:53.333Z,71.3
2018-10-16T11:06:43.458Z,71.3
2018-10-16T11:07:33.175Z,71.2
2018-10-16T11:08:23.473Z,71.2
2018-10-16T11:09:15.751Z,71.2
2018-10-16T11:10:03.319Z,71.2
2018-10-16T11:10:53.689Z,71.2
2018-10-16T11:11:43.125Z,71.2
2018-10-16T11:12:33.756Z,71.2
2018-10-16T11:13:23.800Z,71.2
2018-10-16T11:14:13.102Z,71.2
2018-10-16T11:15:04.899Z,71.1
2018-10-16T11:15:54.145Z,71.1
2018-10-16T11:16:44.147Z,71.2
2018-10-16T11:17:35.448Z,71.2
2018-10-16T11:18:23.462Z,71.3
2018-10-16T11:19:14.097Z,71.3
2018-10-16T11:20:04.440Z,71.3
2018-10-16T11:20:54.717Z,71.3
2018-10-16T11:21:46.011Z,71.3
2018-10-16T11:22:34.289Z,71.4
2018-10-16T11:23:24.786Z,71.4
2018-10-16T11:24:14.695Z,71.4
2018-10-16T11:25:04.700Z,71.4
2018-10-16T11:25:54.758Z,71.4
2018-10-16T11:26:44.565Z,71.4
2018-10-16T11:27:34.632Z,71.3
2018-10-16T11:28:24.389Z,71.3
2018-10-16T11:29:14.201Z,71.3
2018-10-16T11:30:05.329Z,71.4
2018-10-16T11:30:54.336Z,71.4
2018-10-16T11:31:44.074Z,71.4
2018-10-16T11:32:34.985Z,71.4
2018-10-16T11:33:25.031Z,71.5
2018-10-16T11:34:15.422Z,71.5
2018-10-16T11:35:05.707Z,71.6
2018-10-16T11:35:55.545Z,71.6
2018-10-16T11:36:45.617Z,71.6
2018-10-16T11:37:35.713Z,71.6
2018-10-16T11:38:24.866Z,71.6
2018-10-16T11:39:17.261Z,71.6
2018-10-16T11:40:05.497Z,71.6
2018-10-16T11:40:54.712Z,71.6
2018-10-16T11:41:45.628Z,71.6
2018-10-16T11:42:35.940Z,71.6
2018-10-16T11:43:26.317Z,71.6
2018-10-16T11:44:15.213Z,71.6
2018-10-16T11:45:07.228Z,71.6
2018-10-16T11:45:57.067Z,71.6
2018-10-16T11:46:45.418Z,71.6
2018-10-16T11:47:36.417Z,71.5
2018-10-16T11:48:26.081Z,71.5
2018-10-16T11:49:16.431Z,71.4
2018-10-16T11:50:07.679Z,71.4
2018-10-16T11:50:56.090Z,71.4
2018-10-16T11:51:46.350Z,71.4
2018-10-16T11:52:36.431Z,71.4
2018-10-16T11:53:26.157Z,71.4
2018-10-16T11:54:16.887Z,71.4
2018-10-16T11:55:06.617Z,71.4
2018-10-16T11:55:57.414Z,71.4
2018-10-16T11:56:46.719Z,71.4
2018-10-16T11:57:36.794Z,71.4
2018-10-16T11:58:26.853Z,71.3
2018-10-16T11:59:18.909Z,71.3
2018-10-16T12:00:07.266Z,71.3
2018-10-16T12:00:57.001Z,71.3
2018-10-16T12:01:47.099Z,71.2
2018-10-16T12:02:37.216Z,71.2
2018-10-16T12:03:27.499Z,71.2